Time;durP1;ratioP1;P1;durP2;ratioP2;P2;SDS_P1;SDS_P2;PMS_P1;PMS_P2;Temp;Humidity;BMP_temperature;BMP_pressure;BME280_temperature;BME280_humidity;BME280_pressure;Samples;Min_cycle;Max_cycle;Signal;HPM_P1;HPM_P2
2021/03/27 00:13:59;;;;;;;11.93;1.27;;;5.50;99.90;;;;;;6134847;22;20991;-80
2021/03/27 00:16:27;;;;;;;12.45;1.65;;;;;;;;;;5040281;28;20077;-80
2021/03/27 00:18:58;;;;;;;3.80;0.90;;;;;;;;;;5033288;28;20105;-80
2021/03/27 00:21:29;;;;;;;8.10;1.27;;;4.90;99.90;;;;;;5034856;28;20109;-80
2021/03/27 00:23:58;;;;;;;16.92;1.98;;;4.90;99.90;;;;;;5028445;28;20121;-80
2021/03/27 00:26:27;;;;;;;6.68;1.85;;;4.80;99.90;;;;;;5036092;28;20128;-80
2021/03/27 00:28:56;;;;;;;9.38;1.98;;;4.80;99.90;;;;;;5033304;28;20049;-80
2021/03/27 00:31:24;;;;;;;7.00;1.67;;;4.80;99.90;;;;;;5035600;28;20133;-80
2021/03/27 00:33:53;;;;;;;9.00;1.10;;;4.90;99.90;;;;;;5035985;28;20117;-80
2021/03/27 00:36:21;;;;;;;7.22;2.95;;;4.90;99.90;;;;;;5036944;28;20113;-81
2021/03/27 00:38:49;;;;;;;4.85;1.38;;;4.90;99.90;;;;;;5038403;28;20040;-80
2021/03/27 00:41:18;;;;;;;14.30;1.85;;;4.90;99.90;;;;;;5038693;28;20117;-80
2021/03/27 00:43:47;;;;;;;4.30;1.33;;;4.90;99.90;;;;;;5034535;28;20046;-80
2021/03/27 00:48:53;;;;;;;7.05;1.35;;;;;;;;;;5847723;22;20056;-79
2021/03/27 00:56:32;;;;;;;7.50;1.13;;;;;;;;;;5381947;22;20072;-81
2021/03/27 00:58:59;;;;;;;11.38;1.98;;;;;;;;;;5039507;28;20050;-81
2021/03/27 01:01:27;;;;;;;12.50;3.35;;;;;;;;;;5039496;28;20088;-81
2021/03/27 01:03:55;;;;;;;6.18;1.85;;;;;;;;;;5034599;28;20080;-81
2021/03/27 01:06:25;;;;;;;8.77;1.60;;;4.60;99.90;;;;;;5030984;28;20133;-81
2021/03/27 01:08:52;;;;;;;11.15;1.48;;;4.60;99.90;;;;;;5030279;28;20056;-80
2021/03/27 01:11:20;;;;;;;8.45;1.42;;;4.40;99.90;;;;;;5035789;28;20114;-81
2021/03/27 01:13:49;;;;;;;10.75;1.80;;;4.40;99.90;;;;;;5018254;28;20114;-81
2021/03/27 01:16:18;;;;;;;14.98;2.05;;;4.40;99.90;;;;;;5018660;28;20133;-81
2021/03/27 01:18:46;;;;;;;14.57;2.45;;;4.40;99.90;;;;;;5020322;28;20086;-81
2021/03/27 01:21:15;;;;;;;7.97;1.40;;;4.40;99.90;;;;;;5020836;28;20086;-81
2021/03/27 01:23:41;;;;;;;6.00;2.17;;;4.50;99.90;;;;;;5021124;28;20030;-81
2021/03/27 01:26:09;;;;;;;9.30;1.70;;;;;;;;;;5255580;22;20210;-81
2021/03/27 01:28:37;;;;;;;11.00;1.58;;;;;;;;;;5040948;28;20052;-79
2021/03/27 01:31:05;;;;;;;8.00;1.42;;;;;;;;;;5040814;28;20037;-79
2021/03/27 01:33:33;;;;;;;7.65;1.40;;;;;;;;;;5041097;28;20037;-80
2021/03/27 01:36:01;;;;;;;8.45;1.35;;;;;;;;;;5040971;28;20030;-79
2021/03/27 02:22:39;;;;;;;8.38;1.70;;;;;;;;;;5092342;22;20265;-79
2021/03/27 02:25:13;;;;;;;8.77;1.40;;;;;;;;;;5034568;28;20050;-79
2021/03/27 02:27:42;;;;;;;14.88;1.80;;;;;;;;;;5036196;28;20455;-79
2021/03/27 02:30:15;;;;;;;10.65;1.35;;;4.50;99.90;;;;;;5036602;28;20113;-80
2021/03/27 02:33:21;;;;;;;10.15;1.58;;;4.50;99.90;;;;;;5038448;28;20101;-79
2021/03/27 02:36:00;;;;;;;10.27;2.90;;;4.40;99.90;;;;;;5038800;28;20089;-79
2021/03/27 02:38:33;;;;;;;10.70;2.33;;;4.30;99.90;;;;;;5035329;28;20141;-79
2021/03/27 02:41:06;;;;;;;8.93;3.03;;;4.40;99.90;;;;;;5038538;28;20050;-79
2021/03/27 02:43:39;;;;;;;11.10;2.13;;;4.40;99.90;;;;;;5036954;28;20072;-79
2021/03/27 02:46:11;;;;;;;18.92;2.47;;;4.30;99.90;;;;;;5030657;28;20072;-79
2021/03/27 02:48:45;;;;;;;9.82;1.52;;;4.20;99.90;;;;;;5029262;28;20056;-79
2021/03/27 02:51:14;;;;;;;13.23;1.50;;;4.20;99.90;;;;;;5033079;28;20076;-79
2021/03/27 02:53:44;;;;;;;18.65;1.70;;;4.20;99.90;;;;;;5030437;28;20053;-79
2021/03/27 02:56:24;;;;;;;7.57;1.77;;;4.20;99.90;;;;;;5030029;28;20045;-79
2021/03/27 02:59:09;;;;;;;9.90;2.72;;;4.30;99.90;;;;;;5031455;28;20060;-79
2021/03/27 03:01:41;;;;;;;10.05;2.03;;;4.30;99.90;;;;;;5026911;28;20145;-77
2021/03/27 03:04:09;;;;;;;14.80;1.70;;;4.30;99.90;;;;;;5015339;28;20042;-78
2021/03/27 03:06:41;;;;;;;13.43;3.42;;;4.30;99.90;;;;;;5014941;28;20112;-77
2021/03/27 03:09:11;;;;;;;13.23;2.30;;;4.30;99.90;;;;;;5015441;28;20050;-78
2021/03/27 03:11:46;;;;;;;9.82;1.67;;;4.40;99.90;;;;;;5015003;28;20054;-78
2021/03/27 03:14:16;;;;;;;9.10;1.80;;;4.40;99.90;;;;;;5015386;28;20046;-78
2021/03/27 03:16:46;;;;;;;9.85;1.48;;;4.40;99.90;;;;;;5015607;28;20082;-77
2021/03/27 03:19:15;;;;;;;17.00;4.70;;;4.50;99.90;;;;;;5015493;28;20061;-78
2021/03/27 03:21:44;;;;;;;18.08;3.22;;;4.50;99.90;;;;;;5013264;28;20149;-78
2021/03/27 03:24:15;;;;;;;13.00;1.90;;;4.50;99.90;;;;;;4996915;28;20344;-78
2021/03/27 03:26:49;;;;;;;15.18;2.08;;;4.50;99.90;;;;;;4997528;28;20133;-78
2021/03/27 03:29:18;;;;;;;10.73;2.10;;;4.60;99.90;;;;;;4996948;28;20064;-78
2021/03/27 03:31:50;;;;;;;13.75;2.03;;;4.60;99.90;;;;;;4996699;28;20050;-78
2021/03/27 03:34:27;;;;;;;18.27;2.30;;;4.60;99.90;;;;;;5002615;28;20060;-78
2021/03/27 03:37:01;;;;;;;20.35;2.25;;;4.60;99.90;;;;;;5002458;28;20422;-78
2021/03/27 03:39:50;;;;;;;12.35;1.75;;;4.60;99.90;;;;;;5002549;28;20057;-78
2021/03/27 03:42:31;;;;;;;17.58;1.70;;;4.60;99.90;;;;;;5006479;28;20081;-78
2021/03/27 03:45:02;;;;;;;11.70;1.63;;;4.60;99.90;;;;;;5012054;28;20046;-78
2021/03/27 03:47:32;;;;;;;16.98;3.45;;;4.60;99.90;;;;;;5008683;28;20055;-78
2021/03/27 03:50:22;;;;;;;9.63;2.78;;;4.60;99.90;;;;;;5003803;28;20100;-78
2021/03/27 03:53:18;;;;;;;7.85;1.75;;;4.60;99.90;;;;;;5001981;28;20124;-78
2021/03/27 03:56:08;;;;;;;10.35;1.92;;;4.50;99.90;;;;;;5001676;28;20054;-78
2021/03/27 03:59:00;;;;;;;6.82;1.55;;;4.40;99.90;;;;;;5002020;28;20058;-78
2021/03/27 04:01:38;;;;;;;15.82;2.08;;;4.40;99.90;;;;;;5004965;28;20046;-78
2021/03/27 04:04:07;;;;;;;22.05;2.78;;;4.40;99.90;;;;;;5005525;28;20069;-78
2021/03/27 04:06:34;;;;;;;14.07;2.78;;;4.40;99.90;;;;;;5007191;28;20047;-78
2021/03/27 04:09:02;;;;;;;17.42;2.38;;;4.50;99.90;;;;;;5005524;28;20463;-78
2021/03/27 04:11:42;;;;;;;10.20;1.63;;;4.40;99.90;;;;;;5006635;28;20120;-78
2021/03/27 04:14:15;;;;;;;18.00;2.85;;;4.50;99.90;;;;;;5005720;28;20127;-78
2021/03/27 04:16:43;;;;;;;22.00;2.28;;;4.40;99.90;;;;;;5005469;28;20046;-78
2021/03/27 04:19:14;;;;;;;11.85;1.85;;;4.40;99.90;;;;;;5007560;28;20068;-78
2021/03/27 04:21:48;;;;;;;18.17;2.15;;;4.40;99.90;;;;;;5008713;28;20058;-78
2021/03/27 04:24:18;;;;;;;16.83;2.50;;;4.50;99.90;;;;;;5007287;28;20112;-78
2021/03/27 04:26:48;;;;;;;20.15;2.53;;;4.50;99.90;;;;;;5006383;28;20054;-78
2021/03/27 04:29:20;;;;;;;15.68;2.75;;;4.40;99.90;;;;;;5008826;28;20141;-78
2021/03/27 04:31:50;;;;;;;16.98;2.13;;;4.40;99.90;;;;;;5009241;28;20054;-78
2021/03/27 04:34:20;;;;;;;12.75;2.83;;;4.40;99.90;;;;;;5003855;28;20050;-77
2021/03/27 04:36:49;;;;;;;16.10;3.53;;;4.40;99.90;;;;;;5002134;28;20061;-77
2021/03/27 04:39:18;;;;;;;22.08;4.40;;;4.30;99.90;;;;;;5001997;28;20056;-78
2021/03/27 04:41:53;;;;;;;13.48;2.13;;;4.30;99.90;;;;;;5002671;28;20054;-78
2021/03/27 04:44:21;;;;;;;10.75;2.55;;;4.20;99.90;;;;;;4999099;28;20050;-78
2021/03/27 04:46:52;;;;;;;15.70;2.58;;;4.30;99.90;;;;;;4998708;28;20545;-78
2021/03/27 04:49:24;;;;;;;15.38;2.72;;;4.30;99.90;;;;;;4999175;28;20068;-78
2021/03/27 04:51:54;;;;;;;20.58;4.68;;;4.40;99.90;;;;;;5002428;28;20132;-78
2021/03/27 04:54:39;;;;;;;10.15;1.90;;;4.30;99.90;;;;;;5019164;28;20056;-78
2021/03/27 04:57:11;;;;;;;;;;;4.40;99.90;;;;;;5020549;28;20066;-78
2021/03/27 04:59:50;;;;;;;10.75;1.80;;;4.50;99.90;;;;;;5024430;28;19921;-78
2021/03/27 05:02:17;;;;;;;6.90;2.20;;;4.50;99.90;;;;;;5027680;28;20054;-79
2021/03/27 05:04:51;;;;;;;25.08;2.88;;;4.50;99.90;;;;;;5031956;28;20387;-79
2021/03/27 05:07:19;;;;;;;12.68;2.70;;;4.60;99.90;;;;;;5032884;28;20050;-77
2021/03/27 05:09:47;;;;;;;14.30;1.80;;;4.50;99.90;;;;;;5018139;28;20089;-78
2021/03/27 05:12:15;;;;;;;20.27;2.72;;;4.60;99.90;;;;;;5024448;28;20054;-78
2021/03/27 05:15:01;;;;;;;12.23;2.50;;;4.50;99.90;;;;;;5029700;28;20042;-79
2021/03/27 05:17:39;;;;;;;15.20;2.40;;;4.60;99.90;;;;;;5032274;28;20054;-78
2021/03/27 05:20:10;;;;;;;15.65;1.92;;;4.60;99.90;;;;;;5032414;28;20050;-78
2021/03/27 05:22:44;;;;;;;15.80;3.25;;;4.60;99.90;;;;;;5034174;28;20058;-79
2021/03/27 05:25:24;;;;;;;13.55;1.98;;;4.70;99.90;;;;;;5037103;28;20030;-79
2021/03/27 05:27:58;;;;;;;20.10;3.60;;;4.70;99.90;;;;;;5037872;28;20105;-79
2021/03/27 05:30:25;;;;;;;9.60;1.85;;;4.70;99.90;;;;;;5038807;28;20089;-79
2021/03/27 05:33:30;;;;;;;10.55;2.28;;;4.70;99.90;;;;;;5039045;28;20046;-79
2021/03/27 05:36:08;;;;;;;23.25;3.58;;;4.80;99.90;;;;;;5023156;28;20137;-78
2021/03/27 05:38:38;;;;;;;24.30;3.15;;;4.80;99.90;;;;;;5040801;28;20125;-79
2021/03/27 05:41:22;;;;;;;18.88;3.47;;;4.80;99.90;;;;;;5040200;28;20034;-79
2021/03/27 05:46:53;;;;;;;16.40;2.90;;;4.90;99.90;;;;;;5150728;22;20081;-80
2021/03/27 05:49:42;;;;;;;12.77;2.50;;;4.90;99.90;;;;;;5014193;28;20082;-80
2021/03/27 05:52:41;;;;;;;9.85;2.00;;;4.90;99.90;;;;;;5015915;28;20034;-80
2021/03/27 05:55:34;;;;;;;14.73;2.08;;;4.90;99.90;;;;;;5017626;28;20097;-80
2021/03/27 06:08:45;;;;;;;21.55;2.35;;;;;;;;;;5975162;22;20071;-79
2021/03/27 12:12:57;;;;;;;9.30;1.30;;;;;;;;;;5055961;22;20063;-87
2021/03/27 12:19:04;;;;;;;11.15;1.30;;;8.60;99.90;;;;;;5029075;28;20448;-91
2021/03/27 12:36:57;;;;;;;6.65;1.13;;;9.10;99.90;;;;;;5018379;28;20528;-89
2021/03/27 12:39:25;;;;;;;3.58;0.70;;;;;;;;;;5017914;28;20145;-91
2021/03/27 12:42:01;;;;;;;9.52;1.27;;;9.30;99.90;;;;;;5017542;28;20057;-90
2021/03/27 12:44:32;;;;;;;3.78;1.42;;;7.20;99.90;;;;;;5017504;28;20041;-90
2021/03/27 12:47:05;;;;;;;9.98;1.20;;;9.40;99.90;;;;;;5017375;28;20046;-90
2021/03/27 12:50:05;;;;;;;9.55;2.45;;;9.50;99.90;;;;;;5017380;28;20050;-89
2021/03/27 12:53:09;;;;;;;7.75;1.63;;;9.60;99.90;;;;;;5008641;28;20375;-90
2021/03/27 12:55:38;;;;;;;11.70;1.30;;;9.60;99.40;;;;;;4997695;28;20046;-91
2021/03/27 12:58:07;;;;;;;5.13;1.40;;;;;;;;;;4997488;28;20050;-90
2021/03/27 13:00:53;;;;;;;8.98;1.30;;;9.70;99.90;;;;;;4997968;28;20077;-91
2021/03/27 13:03:45;;;;;;;8.52;1.40;;;9.70;99.90;;;;;;4997769;28;20060;-90
2021/03/27 13:06:29;;;;;;;11.23;1.50;;;9.60;99.90;;;;;;4996791;28;20062;-90
2021/03/27 13:09:33;;;;;;;8.32;1.83;;;9.70;99.90;;;;;;4996933;28;20066;-91
2021/03/27 13:12:01;;;;;;;6.35;1.40;;;9.80;99.90;;;;;;4997573;28;20132;-91
2021/03/27 13:15:06;;;;;;;4.53;1.17;;;9.80;99.90;;;;;;4997266;28;20058;-92
2021/03/27 13:17:37;;;;;;;5.03;1.00;;;9.90;99.50;;;;;;4997609;28;20065;-91
2021/03/27 13:20:06;;;;;;;6.10;1.73;;;9.90;95.00;;;;;;4997485;28;20050;-91
2021/03/27 13:22:36;;;;;;;9.18;1.13;;;10.00;98.40;;;;;;4997206;28;20046;-91
2021/03/27 13:25:16;;;;;;;17.20;2.15;;;10.00;97.10;;;;;;4997170;28;20050;-91
2021/03/27 13:27:44;;;;;;;10.88;2.33;;;10.00;97.10;;;;;;4997365;28;20068;-91
2021/03/27 13:30:32;;;;;;;4.13;1.00;;;10.10;97.90;;;;;;4996980;28;20054;-90
2021/03/27 13:33:21;;;;;;;8.25;1.33;;;10.10;95.50;;;;;;4997019;28;20054;-91
2021/03/27 13:36:11;;;;;;;12.32;1.40;;;10.10;96.70;;;;;;4994452;28;20051;-91
2021/03/27 13:38:44;;;;;;;7.25;1.35;;;10.00;99.90;;;;;;4980704;28;20391;-91
2021/03/27 13:41:46;;;;;;;7.65;1.50;;;10.00;99.90;;;;;;4997584;28;20065;-90
2021/03/27 13:44:17;;;;;;;4.18;1.33;;;9.90;99.90;;;;;;4996675;28;20407;-91
2021/03/27 13:46:44;;;;;;;10.45;1.98;;;;;;;;;;4997365;28;20050;-92
2021/03/27 13:49:13;;;;;;;9.38;2.35;;;9.60;99.90;;;;;;4997005;28;20111;-91
2021/03/27 13:51:40;;;;;;;8.00;2.10;;;;;;;;;;5004120;28;20107;-90
2021/03/27 13:54:24;;;;;;;12.30;1.90;;;9.50;99.90;;;;;;5007171;28;20054;-91
2021/03/27 13:56:53;;;;;;;16.02;2.50;;;9.50;99.90;;;;;;5016760;28;20049;-91
2021/03/27 13:59:41;;;;;;;13.40;1.55;;;9.60;99.90;;;;;;5016290;28;20428;-90
2021/03/27 14:02:44;;;;;;;4.50;1.13;;;9.50;99.90;;;;;;5016225;28;20053;-91
2021/03/27 14:05:17;;;;;;;11.00;2.95;;;9.60;99.90;;;;;;5015920;28;20493;-92
2021/03/27 14:07:44;;;;;;;6.70;1.00;;;9.70;99.90;;;;;;5015927;28;20075;-91
2021/03/27 14:10:15;;;;;;;9.48;1.30;;;9.60;99.90;;;;;;5015589;28;20137;-92
2021/03/27 14:12:43;;;;;;;7.05;2.13;;;;;;;;;;5015902;28;20531;-91
2021/03/27 14:15:28;;;;;;;8.55;2.20;;;9.60;99.90;;;;;;5015784;28;20477;-90
2021/03/27 14:18:09;;;;;;;;;;;9.60;99.90;;;;;;5016059;28;20053;-90
2021/03/27 14:20:44;;;;;;;7.93;1.50;;;9.70;99.90;;;;;;5013308;28;19922;-89
2021/03/27 14:23:31;;;;;;;;;;;9.70;99.90;;;;;;5002647;28;20123;-91
2021/03/27 14:26:21;;;;;;;7.20;1.23;;;9.70;99.90;;;;;;4995830;28;19925;-90
2021/03/27 14:28:51;;;;;;;8.20;1.17;;;9.90;99.90;;;;;;4995980;28;20054;-91
2021/03/27 14:31:35;;;;;;;5.97;1.40;;;9.90;99.90;;;;;;4995819;28;20058;-91
2021/03/27 14:34:21;;;;;;;14.82;1.70;;;9.90;99.90;;;;;;4995736;28;20058;-89
2021/03/27 14:37:35;;;;;;;7.40;0.93;;;9.90;99.90;;;;;;4996168;28;20062;-90
2021/03/27 14:40:11;;;;;;;4.85;1.10;;;9.90;99.90;;;;;;4955599;29;20121;-91
2021/03/27 14:42:52;;;;;;;7.18;1.33;;;9.80;99.90;;;;;;4955443;29;20055;-92
2021/03/27 14:45:29;;;;;;;5.72;1.10;;;9.80;99.90;;;;;;4955539;29;20054;-92
2021/03/27 14:48:18;;;;;;;9.93;2.08;;;9.80;99.90;;;;;;4963100;28;20050;-91
2021/03/27 14:51:03;;;;;;;5.00;1.25;;;9.80;99.90;;;;;;4967113;28;20117;-91
2021/03/27 14:53:37;;;;;;;11.05;1.92;;;9.70;99.90;;;;;;4970730;28;20081;-92
2021/03/27 14:56:11;;;;;;;6.68;1.17;;;9.70;99.90;;;;;;4974370;28;20042;-91
2021/03/27 14:58:42;;;;;;;7.00;1.05;;;;;;;;;;4974582;28;20055;-92
2021/03/27 15:01:13;;;;;;;4.32;0.93;;;9.80;99.90;;;;;;4974247;28;20116;-92
2021/03/27 15:03:53;;;;;;;7.20;1.10;;;9.80;99.90;;;;;;4974101;28;20557;-92
2021/03/27 15:06:27;;;;;;;5.38;0.90;;;9.80;99.90;;;;;;4974125;28;20058;-92
2021/03/27 15:08:54;;;;;;;8.82;1.02;;;9.80;99.90;;;;;;4974461;28;20059;-91
2021/03/27 15:11:25;;;;;;;5.35;1.20;;;9.70;99.90;;;;;;4989412;28;20060;-91
2021/03/27 15:13:54;;;;;;;9.48;1.50;;;;;;;;;;4996265;28;20045;-92
2021/03/27 15:16:38;;;;;;;7.55;1.83;;;9.90;99.90;;;;;;5002834;28;20081;-92
2021/03/27 15:19:22;;;;;;;21.05;3.30;;;10.00;99.90;;;;;;4995115;28;20054;-92
2021/03/27 15:22:19;;;;;;;9.65;2.10;;;10.00;99.90;;;;;;4996744;28;20060;-91
2021/03/27 15:27:46;;;;;;;10.63;1.55;;;9.80;99.90;;;;;;4999245;28;20142;-91
2021/03/27 15:30:16;;;;;;;6.75;1.70;;;;;;;;;;5000869;28;20050;-91
2021/03/27 15:32:58;;;;;;;12.25;2.15;;;9.70;99.90;;;;;;5008357;28;20058;-92
2021/03/27 15:35:36;;;;;;;6.45;1.70;;;9.70;99.90;;;;;;5012315;28;20117;-91
2021/03/27 15:38:29;;;;;;;15.57;2.63;;;9.80;99.90;;;;;;5001549;28;20135;-91
2021/03/27 15:41:15;;;;;;;7.70;1.50;;;9.80;99.90;;;;;;4996801;28;20050;-93
2021/03/27 15:44:12;;;;;;;7.68;1.88;;;9.80;99.90;;;;;;4994413;28;20133;-91
2021/03/27 15:47:00;;;;;;;5.90;1.60;;;9.80;99.90;;;;;;4995719;28;20063;-91
2021/03/27 15:49:35;;;;;;;4.78;0.90;;;9.90;99.90;;;;;;5014151;28;20054;-90
2021/03/27 15:55:31;;;;;;;12.52;1.05;;;10.00;99.90;;;;;;5011964;28;20459;-90
2021/03/27 16:01:06;;;;;;;;;;;10.00;99.90;;;;;;5014852;28;20054;-93
2021/03/27 16:03:43;;;;;;;7.38;1.67;;;;;;;;;;5000102;28;19933;-91
2021/03/27 16:06:45;;;;;;;10.05;2.47;;;10.00;99.90;;;;;;4994700;28;20420;-92
2021/03/27 16:09:25;;;;;;;10.07;1.60;;;10.10;99.90;;;;;;4994986;28;20057;-92
2021/03/27 16:12:18;;;;;;;7.63;1.52;;;10.00;99.90;;;;;;4994865;28;20054;-90
2021/03/27 16:15:27;;;;;;;5.10;1.20;;;10.00;99.90;;;;;;4994876;28;20143;-90
2021/03/27 16:18:36;;;;;;;7.28;0.93;;;9.80;99.90;;;;;;4995421;28;20104;-87
2021/03/27 16:21:19;;;;;;;7.45;1.27;;;9.70;99.90;;;;;;4978328;28;20096;-86
2021/03/27 16:23:46;;;;;;;8.50;2.42;;;9.70;99.90;;;;;;4971822;28;20085;-87
2021/03/27 16:26:37;;;;;;;9.90;2.28;;;9.70;99.90;;;;;;4973168;28;20051;-89
2021/03/27 16:29:16;;;;;;;16.30;1.95;;;9.60;99.90;;;;;;4973368;28;20112;-88
2021/03/27 16:32:00;;;;;;;4.82;0.85;;;9.60;99.90;;;;;;4977757;28;20518;-89
2021/03/27 16:35:02;;;;;;;5.68;1.98;;;9.60;99.90;;;;;;4991054;28;20093;-87
2021/03/27 16:37:40;;;;;;;5.35;1.15;;;9.60;99.90;;;;;;4989439;28;20051;-90
2021/03/27 16:40:25;;;;;;;6.68;1.05;;;;;;;;;;4992984;28;20137;-89
2021/03/27 16:43:00;;;;;;;12.57;1.98;;;9.70;99.90;;;;;;4995930;28;20112;-88
2021/03/27 16:45:32;;;;;;;7.40;1.20;;;9.70;99.90;;;;;;4996134;28;20042;-89
2021/03/27 16:48:13;;;;;;;10.30;1.25;;;9.60;99.90;;;;;;4995614;28;20054;-89
2021/03/27 16:51:00;;;;;;;4.95;1.20;;;9.60;99.90;;;;;;4995834;28;20467;-89
2021/03/27 16:53:41;;;;;;;8.00;1.35;;;9.60;99.90;;;;;;4995851;28;20514;-88
2021/03/27 16:56:21;;;;;;;6.50;1.05;;;9.60;99.90;;;;;;4996237;28;20056;-89
2021/03/27 16:58:57;;;;;;;5.85;1.30;;;9.50;99.90;;;;;;4997691;28;20058;-89
2021/03/27 17:01:43;;;;;;;3.53;1.08;;;9.50;99.90;;;;;;4997685;28;20050;-89
2021/03/27 17:04:16;;;;;;;4.95;1.95;;;9.40;99.90;;;;;;4997292;28;20060;-89
2021/03/27 17:06:48;;;;;;;5.38;1.08;;;;;;;;;;4997342;28;20056;-89
2021/03/27 17:09:24;;;;;;;10.98;2.15;;;9.60;99.90;;;;;;4997387;28;20406;-90
2021/03/27 17:12:13;;;;;;;5.72;1.13;;;9.60;99.90;;;;;;4997496;28;20050;-89
2021/03/27 17:14:45;;;;;;;2.58;0.85;;;;;;;;;;4997216;28;20051;-89
2021/03/27 17:17:14;;;;;;;4.80;1.73;;;;;;;;;;4997149;28;20471;-90
2021/03/27 17:19:45;;;;;;;9.60;2.10;;;9.60;99.90;;;;;;5008368;28;20076;-91
2021/03/27 17:22:35;;;;;;;8.40;1.15;;;9.50;99.90;;;;;;5004874;28;20071;-90
2021/03/27 17:25:12;;;;;;;4.45;1.40;;;9.50;99.90;;;;;;4981039;28;20057;-87
2021/03/27 17:27:42;;;;;;;4.72;1.25;;;9.40;99.90;;;;;;4979793;28;20054;-89
2021/03/27 17:30:20;;;;;;;3.50;1.10;;;9.40;99.90;;;;;;4982255;28;20087;-88
2021/03/27 17:33:05;;;;;;;6.45;1.55;;;9.40;99.90;;;;;;4991457;28;20058;-81
2021/03/27 17:35:32;;;;;;;5.25;1.05;;;9.30;99.90;;;;;;4997811;28;20062;-90
2021/03/27 17:38:03;;;;;;;6.00;0.98;;;;;;;;;;4997619;28;20051;-89
2021/03/27 17:40:52;;;;;;;5.10;1.10;;;9.30;99.90;;;;;;4997161;28;20583;-89
2021/03/27 17:43:22;;;;;;;4.55;1.33;;;9.30;99.90;;;;;;4996414;28;20056;-84
2021/03/27 17:46:08;;;;;;;6.35;1.58;;;9.30;99.90;;;;;;4996514;28;20054;-87
2021/03/27 17:49:01;;;;;;;8.52;2.20;;;9.30;99.90;;;;;;4996748;28;20472;-82
2021/03/27 17:51:33;;;;;;;9.00;1.55;;;9.30;99.90;;;;;;4996504;28;20060;-82
2021/03/27 17:54:02;;;;;;;5.13;1.60;;;9.30;99.90;;;;;;4996590;28;20125;-81
2021/03/27 17:56:33;;;;;;;8.23;2.42;;;9.20;99.90;;;;;;4996981;28;20046;-79
2021/03/27 17:59:02;;;;;;;4.07;1.40;;;9.30;99.90;;;;;;4996522;28;20104;-81
2021/03/27 18:01:31;;;;;;;5.68;1.58;;;;;;;;;;4996713;28;20051;-80
2021/03/27 18:04:14;;;;;;;5.13;1.10;;;9.20;99.90;;;;;;4996490;28;20390;-80
2021/03/27 18:06:43;;;;;;;5.25;1.50;;;9.20;99.90;;;;;;4996375;28;20057;-83
2021/03/27 18:09:12;;;;;;;9.43;1.77;;;9.20;99.90;;;;;;4996216;28;20046;-82
2021/03/27 18:11:55;;;;;;;6.90;1.45;;;9.20;99.90;;;;;;4996074;28;20064;-81
2021/03/27 18:14:34;;;;;;;5.10;0.82;;;9.10;99.90;;;;;;4996569;28;20062;-82
2021/03/27 18:17:08;;;;;;;8.45;1.50;;;9.10;99.90;;;;;;4996096;28;20050;-80
2021/03/27 18:19:39;;;;;;;12.73;1.03;;;9.10;99.90;;;;;;4996311;28;20062;-81
2021/03/27 18:22:08;;;;;;;6.55;1.73;;;9.20;99.90;;;;;;5001060;28;20052;-80
2021/03/27 18:24:38;;;;;;;4.70;1.20;;;9.10;99.90;;;;;;5011280;28;20050;-82
2021/03/27 18:27:13;;;;;;;12.77;1.33;;;9.10;99.90;;;;;;5014331;28;20068;-85
2021/03/27 18:29:44;;;;;;;7.38;1.92;;;9.00;99.90;;;;;;5015061;28;20060;-83
2021/03/27 18:32:15;;;;;;;6.97;1.27;;;9.10;99.90;;;;;;5015243;28;20057;-84
2021/03/27 18:34:46;;;;;;;14.40;1.60;;;7.30;99.90;;;;;;5015458;28;20041;-82
2021/03/27 18:37:18;;;;;;;9.90;1.33;;;9.00;99.90;;;;;;5015625;28;20140;-84
2021/03/27 18:39:46;;;;;;;4.93;1.20;;;9.00;99.90;;;;;;5015165;28;20068;-81
2021/03/27 18:42:16;;;;;;;6.20;1.73;;;9.00;99.90;;;;;;5014307;28;20079;-81
2021/03/27 18:44:51;;;;;;;5.50;1.77;;;9.00;99.90;;;;;;5014557;28;20054;-83
2021/03/27 18:47:35;;;;;;;13.95;1.83;;;9.00;99.90;;;;;;5014922;28;20544;-84
2021/03/27 18:50:07;;;;;;;6.28;1.65;;;9.00;99.90;;;;;;5014931;28;20046;-84
2021/03/27 18:52:34;;;;;;;5.90;2.60;;;8.90;99.90;;;;;;5014698;28;20046;-84
2021/03/27 18:55:02;;;;;;;5.93;1.48;;;8.90;99.90;;;;;;5014668;28;20107;-82
2021/03/27 18:57:33;;;;;;;4.55;1.30;;;8.90;99.90;;;;;;5015019;28;20050;-83
2021/03/27 19:00:05;;;;;;;4.95;0.95;;;8.90;99.90;;;;;;5015124;28;20053;-80
2021/03/27 19:02:33;;;;;;;3.58;1.70;;;8.90;99.90;;;;;;5014308;28;20056;-79
2021/03/27 19:05:02;;;;;;;10.75;1.40;;;8.90;99.90;;;;;;5013652;28;20068;-79
2021/03/27 19:07:30;;;;;;;7.03;1.42;;;8.60;99.90;;;;;;5012985;28;20053;-78
2021/03/27 19:10:00;;;;;;;6.45;1.35;;;8.90;99.90;;;;;;5011594;28;20050;-85
2021/03/27 19:12:33;;;;;;;5.95;2.55;;;8.90;99.90;;;;;;5014381;28;20050;-85
2021/03/27 19:15:01;;;;;;;4.70;0.90;;;8.80;99.90;;;;;;5014385;28;20056;-81
2021/03/27 19:17:29;;;;;;;4.15;1.58;;;8.80;99.90;;;;;;5014539;28;20060;-81
2021/03/27 19:19:58;;;;;;;4.03;2.05;;;8.80;99.90;;;;;;5014873;28;20132;-83
2021/03/27 19:22:31;;;;;;;7.32;1.25;;;8.80;99.90;;;;;;5014498;28;20050;-82
2021/03/27 19:25:01;;;;;;;5.22;1.27;;;8.80;99.90;;;;;;5014268;28;20068;-84
2021/03/27 19:27:32;;;;;;;2.88;1.58;;;8.80;99.90;;;;;;5014279;28;20403;-81
2021/03/27 19:30:05;;;;;;;4.25;1.55;;;8.80;99.90;;;;;;5014679;28;20046;-84
2021/03/27 19:32:35;;;;;;;8.60;1.50;;;8.70;99.90;;;;;;5014088;28;20057;-82
2021/03/27 19:35:06;;;;;;;7.45;0.98;;;8.70;99.90;;;;;;5014420;28;20123;-82
2021/03/27 19:37:33;;;;;;;3.80;1.13;;;8.70;99.90;;;;;;5014464;28;20054;-86
2021/03/27 19:40:02;;;;;;;5.00;1.50;;;8.70;99.90;;;;;;5014119;28;20050;-85
2021/03/27 19:42:31;;;;;;;6.13;1.25;;;8.60;99.90;;;;;;5014170;28;20086;-85
2021/03/27 19:45:03;;;;;;;3.78;1.17;;;8.60;99.90;;;;;;5014234;28;20073;-86
2021/03/27 19:47:35;;;;;;;9.05;2.05;;;8.60;99.90;;;;;;5014265;28;20053;-84
2021/03/27 19:50:16;;;;;;;6.75;2.25;;;8.60;99.90;;;;;;5014179;28;20057;-86
2021/03/27 19:52:44;;;;;;;5.68;1.30;;;8.60;99.90;;;;;;5014159;28;20054;-85
2021/03/27 19:55:18;;;;;;;6.78;1.67;;;8.60;99.90;;;;;;5014440;28;20053;-86
2021/03/27 19:58:04;;;;;;;9.30;1.48;;;8.60;99.90;;;;;;5014137;28;20480;-86
2021/03/27 20:00:38;;;;;;;8.85;1.77;;;8.60;99.90;;;;;;5014178;28;20049;-85
2021/03/27 20:03:09;;;;;;;8.88;1.83;;;8.60;99.90;;;;;;5014158;28;20053;-84
2021/03/27 20:05:39;;;;;;;6.13;3.00;;;8.60;99.90;;;;;;5014256;28;20054;-86
2021/03/27 20:08:10;;;;;;;9.10;1.70;;;8.60;99.90;;;;;;5014081;28;20477;-82
2021/03/27 20:10:37;;;;;;;10.38;1.70;;;8.60;99.90;;;;;;5013629;28;20054;-85
2021/03/27 20:13:06;;;;;;;6.93;1.23;;;8.60;99.90;;;;;;5013640;28;20064;-81
2021/03/27 20:15:38;;;;;;;7.97;1.70;;;8.60;99.90;;;;;;5015998;28;20377;-88
2021/03/27 20:18:13;;;;;;;7.30;1.27;;;8.70;99.90;;;;;;5017194;28;20046;-79
2021/03/27 20:21:06;;;;;;;5.25;1.50;;;8.60;99.90;;;;;;5017414;28;20046;-80
2021/03/27 20:23:45;;;;;;;8.27;1.05;;;8.70;99.90;;;;;;5013871;28;20050;-87
2021/03/27 20:26:29;;;;;;;4.55;1.50;;;8.60;99.90;;;;;;5017032;28;20127;-79
2021/03/27 20:29:01;;;;;;;8.00;1.52;;;8.60;99.90;;;;;;5017427;28;20046;-80
2021/03/27 20:31:32;;;;;;;9.75;1.40;;;8.60;99.90;;;;;;5017648;28;20541;-78
2021/03/27 20:34:03;;;;;;;4.50;1.05;;;8.60;99.90;;;;;;5017663;28;20112;-80
2021/03/27 20:36:35;;;;;;;6.30;1.30;;;8.60;99.90;;;;;;5017574;28;20107;-79
2021/03/27 20:39:04;;;;;;;5.60;1.13;;;8.60;99.90;;;;;;5017535;28;20049;-79
2021/03/27 20:42:13;;;;;;;5.03;1.30;;;8.60;99.90;;;;;;5017644;28;20128;-79
2021/03/27 20:44:57;;;;;;;8.90;1.05;;;8.60;99.90;;;;;;5017227;28;20479;-80
2021/03/27 20:47:44;;;;;;;5.95;1.45;;;8.60;99.90;;;;;;5017476;28;20050;-79
2021/03/27 20:50:15;;;;;;;9.85;2.22;;;8.60;99.90;;;;;;5017382;28;20056;-80
2021/03/27 20:53:11;;;;;;;5.15;1.17;;;8.60;99.90;;;;;;5017457;28;20061;-81
2021/03/27 20:55:40;;;;;;;6.03;1.23;;;8.60;99.90;;;;;;5004258;28;20487;-81
2021/03/27 20:58:40;;;;;;;10.43;1.58;;;8.60;99.90;;;;;;5017175;28;20505;-80
2021/03/27 21:01:09;;;;;;;5.22;2.03;;;8.60;99.90;;;;;;4957200;29;20055;-78
2021/03/27 21:03:41;;;;;;;9.43;1.60;;;8.60;99.90;;;;;;4957064;29;20083;-78
2021/03/27 21:06:09;;;;;;;8.73;1.20;;;8.60;99.90;;;;;;4951569;29;20052;-77
2021/03/27 21:08:43;;;;;;;7.22;1.50;;;8.60;99.90;;;;;;4937904;29;20051;-77
2021/03/27 21:11:12;;;;;;;8.07;2.27;;;8.60;99.90;;;;;;4937931;29;20056;-78
2021/03/27 21:14:03;;;;;;;5.55;1.73;;;8.60;99.90;;;;;;4937764;29;20304;-77
2021/03/27 21:16:33;;;;;;;11.30;1.65;;;8.60;99.90;;;;;;4941411;29;20044;-78
2021/03/27 21:19:24;;;;;;;9.30;2.13;;;8.60;99.90;;;;;;4946868;29;20080;-79
2021/03/27 21:22:02;;;;;;;10.70;1.67;;;8.60;99.90;;;;;;4939346;29;20095;-78
2021/03/27 21:24:39;;;;;;;7.43;1.48;;;8.60;99.90;;;;;;4937744;29;20118;-77
2021/03/27 21:27:15;;;;;;;5.90;1.08;;;8.50;99.90;;;;;;4936953;29;20048;-77
2021/03/27 21:30:11;;;;;;;10.75;1.77;;;8.50;99.90;;;;;;4937551;29;20077;-78
2021/03/27 21:32:38;;;;;;;5.70;1.08;;;8.50;99.90;;;;;;4935783;29;20405;-77
2021/03/27 21:35:14;;;;;;;12.23;1.13;;;8.50;99.90;;;;;;4937393;29;20438;-78
2021/03/27 21:37:56;;;;;;;6.47;1.30;;;8.50;99.90;;;;;;4991718;28;20109;-77